<?xml version="1.0" encoding="UTF-8" standalone="no" ?>
<gpx xmlns="http://www.topografix.com/GPX/1/1" xmlns:xsi="http://www.w3.org/2001/XMLSchema-instance" xsi:schemaLocation="http://www.topografix.com/GPX/1/1 http://www.topografix.com/GPX/1/1/gpx.xsd" version="1.1" creator="VisuGPX - https://www.visugpx.com">
  <metadata>
    <name>Rando LN</name>
  </metadata>
  <trk>
    <name><![CDATA[Faux]]></name>
    <extensions>
      <line xmlns="http://www.topografix.com/GPX/gpx_style/0/2">
        <color>00ff6e</color>
        <width>4</width>
      </line>
    </extensions>
    <trkseg>
      <trkpt lat="44.79203" lon="0.50044">
        <ele>176.64</ele>
        <time>2017-03-29T12:27:12Z</time>
      </trkpt>
      <trkpt lat="44.79203" lon="0.50044">
        <ele>176.64</ele>
        <time>2017-03-29T12:27:12Z</time>
      </trkpt>
      <trkpt lat="44.79203" lon="0.50044">
        <ele>176.64</ele>
        <time>2017-03-29T12:27:12Z</time>
      </trkpt>
      <trkpt lat="44.79203" lon="0.50044">
        <ele>176.64</ele>
        <time>2017-03-29T12:27:12Z</time>
      </trkpt>
      <trkpt lat="44.79203" lon="0.50044">
        <ele>176.64</ele>
        <time>2017-03-29T12:27:12Z</time>
      </trkpt>
      <trkpt lat="44.79203" lon="0.50044">
        <ele>176.64</ele>
        <time>2017-03-29T12:27:12Z</time>
      </trkpt>
      <trkpt lat="44.79203" lon="0.50044">
        <ele>176.64</ele>
        <time>2017-03-29T12:27:12Z</time>
      </trkpt>
      <trkpt lat="44.79203" lon="0.50044">
        <ele>176.64</ele>
        <time>2017-03-29T12:27:12Z</time>
      </trkpt>
      <trkpt lat="44.79177" lon="0.50084">
        <ele>174.122</ele>
        <time>2017-03-29T12:27:32Z</time>
      </trkpt>
      <trkpt lat="44.79136" lon="0.5018">
        <ele>175.124</ele>
        <time>2017-03-29T12:27:52Z</time>
      </trkpt>
      <trkpt lat="44.79111" lon="0.50199">
        <ele>175.845</ele>
        <time>2017-03-29T12:28:12Z</time>
      </trkpt>
      <trkpt lat="44.79005" lon="0.50218">
        <ele>173.131</ele>
        <time>2017-03-29T12:28:32Z</time>
      </trkpt>
      <trkpt lat="44.78973" lon="0.50244">
        <ele>172.443</ele>
        <time>2017-03-29T12:28:52Z</time>
      </trkpt>
      <trkpt lat="44.78931" lon="0.50315">
        <ele>172.049</ele>
        <time>2017-03-29T12:29:12Z</time>
      </trkpt>
      <trkpt lat="44.78741" lon="0.50217">
        <ele>169.902</ele>
        <time>2017-03-29T12:29:32Z</time>
      </trkpt>
      <trkpt lat="44.78622" lon="0.50192">
        <ele>169.322</ele>
        <time>2017-03-29T12:29:52Z</time>
      </trkpt>
      <trkpt lat="44.78485" lon="0.5018">
        <ele>165.508</ele>
        <time>2017-03-29T12:30:12Z</time>
      </trkpt>
      <trkpt lat="44.78429" lon="0.50185">
        <ele>162.68</ele>
        <time>2017-03-29T12:30:32Z</time>
      </trkpt>
      <trkpt lat="44.78433" lon="0.50252">
        <ele>160.055</ele>
        <time>2017-03-29T12:30:52Z</time>
      </trkpt>
      <trkpt lat="44.78372" lon="0.50314">
        <ele>149.755</ele>
        <time>2017-03-29T12:31:12Z</time>
      </trkpt>
      <trkpt lat="44.78212" lon="0.50388">
        <ele>136.717</ele>
        <time>2017-03-29T12:31:32Z</time>
      </trkpt>
      <trkpt lat="44.78109" lon="0.50379">
        <ele>133.019</ele>
        <time>2017-03-29T12:31:52Z</time>
      </trkpt>
      <trkpt lat="44.7804" lon="0.50331">
        <ele>131.67</ele>
        <time>2017-03-29T12:32:12Z</time>
      </trkpt>
      <trkpt lat="44.78022" lon="0.50337">
        <ele>129.436</ele>
        <time>2017-03-29T12:32:32Z</time>
      </trkpt>
      <trkpt lat="44.77997" lon="0.50368">
        <ele>127.948</ele>
        <time>2017-03-29T12:32:52Z</time>
      </trkpt>
      <trkpt lat="44.77963" lon="0.50378">
        <ele>126.553</ele>
        <time>2017-03-29T12:33:12Z</time>
      </trkpt>
      <trkpt lat="44.77897" lon="0.50307">
        <ele>124.904</ele>
        <time>2017-03-29T12:33:32Z</time>
      </trkpt>
      <trkpt lat="44.77884" lon="0.50309">
        <ele>124.414</ele>
        <time>2017-03-29T12:33:52Z</time>
      </trkpt>
      <trkpt lat="44.77837" lon="0.50351">
        <ele>121.008</ele>
        <time>2017-03-29T12:34:12Z</time>
      </trkpt>
      <trkpt lat="44.77821" lon="0.50355">
        <ele>121.431</ele>
        <time>2017-03-29T12:34:32Z</time>
      </trkpt>
      <trkpt lat="44.77823" lon="0.50377">
        <ele>120.846</ele>
        <time>2017-03-29T12:34:52Z</time>
      </trkpt>
      <trkpt lat="44.7781" lon="0.50378">
        <ele>121.376</ele>
        <time>2017-03-29T12:35:12Z</time>
      </trkpt>
      <trkpt lat="44.77784" lon="0.50396">
        <ele>121.518</ele>
        <time>2017-03-29T12:35:32Z</time>
      </trkpt>
      <trkpt lat="44.7773" lon="0.50481">
        <ele>129.08</ele>
        <time>2017-03-29T12:35:52Z</time>
      </trkpt>
      <trkpt lat="44.77498" lon="0.50631">
        <ele>130.051</ele>
        <time>2017-03-29T12:36:12Z</time>
      </trkpt>
      <trkpt lat="44.77425" lon="0.50665">
        <ele>128.617</ele>
        <time>2017-03-29T12:36:32Z</time>
      </trkpt>
      <trkpt lat="44.77423" lon="0.5084">
        <ele>130.569</ele>
        <time>2017-03-29T12:36:52Z</time>
      </trkpt>
      <trkpt lat="44.7744" lon="0.50886">
        <ele>134.564</ele>
        <time>2017-03-29T12:37:12Z</time>
      </trkpt>
      <trkpt lat="44.77427" lon="0.50958">
        <ele>146.906</ele>
        <time>2017-03-29T12:37:32Z</time>
      </trkpt>
      <trkpt lat="44.77446" lon="0.51019">
        <ele>157.816</ele>
        <time>2017-03-29T12:37:52Z</time>
      </trkpt>
      <trkpt lat="44.77418" lon="0.51101">
        <ele>162.308</ele>
        <time>2017-03-29T12:38:12Z</time>
      </trkpt>
      <trkpt lat="44.77411" lon="0.51152">
        <ele>160.892</ele>
        <time>2017-03-29T12:38:32Z</time>
      </trkpt>
      <trkpt lat="44.77412" lon="0.51214">
        <ele>161.447</ele>
        <time>2017-03-29T12:38:52Z</time>
      </trkpt>
      <trkpt lat="44.77405" lon="0.51311">
        <ele>160.287</ele>
        <time>2017-03-29T12:39:12Z</time>
      </trkpt>
      <trkpt lat="44.77412" lon="0.51426">
        <ele>160.269</ele>
        <time>2017-03-29T12:39:32Z</time>
      </trkpt>
      <trkpt lat="44.77424" lon="0.52167">
        <ele>169.741</ele>
        <time>2017-03-29T12:39:52Z</time>
      </trkpt>
      <trkpt lat="44.77272" lon="0.52211">
        <ele>165.422</ele>
        <time>2017-03-29T12:40:12Z</time>
      </trkpt>
      <trkpt lat="44.7727" lon="0.52277">
        <ele>163.318</ele>
        <time>2017-03-29T12:40:32Z</time>
      </trkpt>
      <trkpt lat="44.77232" lon="0.52288">
        <ele>162.02</ele>
        <time>2017-03-29T12:40:52Z</time>
      </trkpt>
      <trkpt lat="44.77228" lon="0.52325">
        <ele>157.162</ele>
        <time>2017-03-29T12:41:12Z</time>
      </trkpt>
      <trkpt lat="44.77247" lon="0.52441">
        <ele>147.083</ele>
        <time>2017-03-29T12:41:32Z</time>
      </trkpt>
      <trkpt lat="44.77275" lon="0.52451">
        <ele>148.911</ele>
        <time>2017-03-29T12:41:52Z</time>
      </trkpt>
      <trkpt lat="44.77329" lon="0.52484">
        <ele>142.208</ele>
        <time>2017-03-29T12:42:12Z</time>
      </trkpt>
      <trkpt lat="44.77372" lon="0.52525">
        <ele>139.412</ele>
        <time>2017-03-29T12:42:32Z</time>
      </trkpt>
      <trkpt lat="44.77411" lon="0.52517">
        <ele>147.977</ele>
        <time>2017-03-29T12:42:52Z</time>
      </trkpt>
      <trkpt lat="44.77478" lon="0.52612">
        <ele>157.857</ele>
        <time>2017-03-29T12:43:12Z</time>
      </trkpt>
      <trkpt lat="44.77482" lon="0.52663">
        <ele>157.119</ele>
        <time>2017-03-29T12:43:32Z</time>
      </trkpt>
      <trkpt lat="44.77506" lon="0.52672">
        <ele>155.311</ele>
        <time>2017-03-29T12:43:52Z</time>
      </trkpt>
      <trkpt lat="44.77528" lon="0.52603">
        <ele>159.662</ele>
        <time>2017-03-29T12:44:12Z</time>
      </trkpt>
      <trkpt lat="44.77532" lon="0.52519">
        <ele>161.228</ele>
        <time>2017-03-29T12:44:32Z</time>
      </trkpt>
      <trkpt lat="44.77605" lon="0.52553">
        <ele>152.42</ele>
        <time>2017-03-29T12:44:52Z</time>
      </trkpt>
      <trkpt lat="44.77648" lon="0.52474">
        <ele>154.963</ele>
        <time>2017-03-29T12:45:12Z</time>
      </trkpt>
      <trkpt lat="44.77677" lon="0.52375">
        <ele>154.544</ele>
        <time>2017-03-29T12:45:32Z</time>
      </trkpt>
      <trkpt lat="44.77748" lon="0.52362">
        <ele>156.918</ele>
        <time>2017-03-29T12:45:52Z</time>
      </trkpt>
      <trkpt lat="44.77884" lon="0.52275">
        <ele>159.008</ele>
        <time>2017-03-29T12:46:12Z</time>
      </trkpt>
      <trkpt lat="44.77925" lon="0.5222">
        <ele>161.932</ele>
        <time>2017-03-29T12:46:32Z</time>
      </trkpt>
      <trkpt lat="44.78024" lon="0.52134">
        <ele>167.977</ele>
        <time>2017-03-29T12:46:52Z</time>
      </trkpt>
      <trkpt lat="44.78085" lon="0.52334">
        <ele>162.927</ele>
        <time>2017-03-29T12:47:12Z</time>
      </trkpt>
      <trkpt lat="44.78117" lon="0.52383">
        <ele>156.749</ele>
        <time>2017-03-29T12:47:32Z</time>
      </trkpt>
      <trkpt lat="44.78095" lon="0.52609">
        <ele>144.561</ele>
        <time>2017-03-29T12:47:52Z</time>
      </trkpt>
      <trkpt lat="44.78081" lon="0.52631">
        <ele>143.182</ele>
        <time>2017-03-29T12:48:12Z</time>
      </trkpt>
      <trkpt lat="44.78047" lon="0.52646">
        <ele>140.158</ele>
        <time>2017-03-29T12:48:32Z</time>
      </trkpt>
      <trkpt lat="44.78032" lon="0.52666">
        <ele>136.67</ele>
        <time>2017-03-29T12:48:52Z</time>
      </trkpt>
      <trkpt lat="44.78016" lon="0.5275">
        <ele>127.117</ele>
        <time>2017-03-29T12:49:12Z</time>
      </trkpt>
      <trkpt lat="44.78015" lon="0.5278">
        <ele>125.687</ele>
        <time>2017-03-29T12:49:32Z</time>
      </trkpt>
      <trkpt lat="44.78008" lon="0.52788">
        <ele>125.815</ele>
        <time>2017-03-29T12:49:52Z</time>
      </trkpt>
      <trkpt lat="44.77987" lon="0.52864">
        <ele>132.508</ele>
        <time>2017-03-29T12:50:12Z</time>
      </trkpt>
      <trkpt lat="44.77944" lon="0.53174">
        <ele>123.227</ele>
        <time>2017-03-29T12:50:32Z</time>
      </trkpt>
      <trkpt lat="44.77941" lon="0.53243">
        <ele>125.712</ele>
        <time>2017-03-29T12:50:52Z</time>
      </trkpt>
      <trkpt lat="44.77985" lon="0.53375">
        <ele>127.052</ele>
        <time>2017-03-29T12:51:12Z</time>
      </trkpt>
      <trkpt lat="44.77994" lon="0.53448">
        <ele>128.224</ele>
        <time>2017-03-29T12:51:32Z</time>
      </trkpt>
      <trkpt lat="44.78015" lon="0.53809">
        <ele>131.956</ele>
        <time>2017-03-29T12:51:52Z</time>
      </trkpt>
      <trkpt lat="44.78024" lon="0.53847">
        <ele>132.327</ele>
        <time>2017-03-29T12:52:12Z</time>
      </trkpt>
      <trkpt lat="44.78051" lon="0.53872">
        <ele>129.473</ele>
        <time>2017-03-29T12:52:32Z</time>
      </trkpt>
      <trkpt lat="44.78113" lon="0.5391">
        <ele>127.035</ele>
        <time>2017-03-29T12:52:52Z</time>
      </trkpt>
      <trkpt lat="44.78133" lon="0.53932">
        <ele>126.038</ele>
        <time>2017-03-29T12:53:12Z</time>
      </trkpt>
      <trkpt lat="44.78149" lon="0.54054">
        <ele>122.57</ele>
        <time>2017-03-29T12:53:32Z</time>
      </trkpt>
      <trkpt lat="44.78354" lon="0.54087">
        <ele>116.217</ele>
        <time>2017-03-29T12:53:52Z</time>
      </trkpt>
      <trkpt lat="44.7832" lon="0.54299">
        <ele>111.708</ele>
        <time>2017-03-29T12:54:12Z</time>
      </trkpt>
      <trkpt lat="44.78259" lon="0.54618">
        <ele>102.559</ele>
        <time>2017-03-29T12:54:32Z</time>
      </trkpt>
      <trkpt lat="44.78248" lon="0.54655">
        <ele>103.624</ele>
        <time>2017-03-29T12:54:52Z</time>
      </trkpt>
      <trkpt lat="44.78222" lon="0.54685">
        <ele>105.774</ele>
        <time>2017-03-29T12:55:12Z</time>
      </trkpt>
      <trkpt lat="44.7821" lon="0.54726">
        <ele>106.146</ele>
        <time>2017-03-29T12:55:32Z</time>
      </trkpt>
      <trkpt lat="44.78206" lon="0.54782">
        <ele>107.948</ele>
        <time>2017-03-29T12:55:52Z</time>
      </trkpt>
      <trkpt lat="44.78218" lon="0.54839">
        <ele>109.339</ele>
        <time>2017-03-29T12:56:12Z</time>
      </trkpt>
      <trkpt lat="44.78244" lon="0.54894">
        <ele>108.235</ele>
        <time>2017-03-29T12:56:32Z</time>
      </trkpt>
      <trkpt lat="44.78248" lon="0.54939">
        <ele>105.587</ele>
        <time>2017-03-29T12:56:52Z</time>
      </trkpt>
      <trkpt lat="44.78244" lon="0.55044">
        <ele>104.922</ele>
        <time>2017-03-29T12:57:12Z</time>
      </trkpt>
      <trkpt lat="44.78204" lon="0.55205">
        <ele>102.262</ele>
        <time>2017-03-29T12:57:32Z</time>
      </trkpt>
      <trkpt lat="44.7809" lon="0.55438">
        <ele>99.108</ele>
        <time>2017-03-29T12:57:52Z</time>
      </trkpt>
      <trkpt lat="44.78103" lon="0.55449">
        <ele>98.708</ele>
        <time>2017-03-29T12:58:12Z</time>
      </trkpt>
      <trkpt lat="44.78107" lon="0.55464">
        <ele>97.738</ele>
        <time>2017-03-29T12:58:32Z</time>
      </trkpt>
      <trkpt lat="44.78097" lon="0.55469">
        <ele>97.783</ele>
        <time>2017-03-29T12:58:52Z</time>
      </trkpt>
      <trkpt lat="44.78108" lon="0.55494">
        <ele>97.173</ele>
        <time>2017-03-29T12:59:12Z</time>
      </trkpt>
      <trkpt lat="44.78098" lon="0.55529">
        <ele>94.835</ele>
        <time>2017-03-29T12:59:32Z</time>
      </trkpt>
      <trkpt lat="44.78024" lon="0.55674">
        <ele>79.287</ele>
        <time>2017-03-29T12:59:52Z</time>
      </trkpt>
      <trkpt lat="44.78001" lon="0.55741">
        <ele>73.398</ele>
        <time>2017-03-29T13:00:12Z</time>
      </trkpt>
      <trkpt lat="44.77986" lon="0.55823">
        <ele>69.094</ele>
        <time>2017-03-29T13:00:32Z</time>
      </trkpt>
      <trkpt lat="44.7798" lon="0.55892">
        <ele>65.286</ele>
        <time>2017-03-29T13:00:52Z</time>
      </trkpt>
      <trkpt lat="44.77948" lon="0.55937">
        <ele>64.011</ele>
        <time>2017-03-29T13:01:12Z</time>
      </trkpt>
      <trkpt lat="44.77941" lon="0.55964">
        <ele>63.021</ele>
        <time>2017-03-29T13:01:32Z</time>
      </trkpt>
      <trkpt lat="44.77944" lon="0.56003">
        <ele>60.903</ele>
        <time>2017-03-29T13:01:52Z</time>
      </trkpt>
      <trkpt lat="44.77996" lon="0.55977">
        <ele>61.908</ele>
        <time>2017-03-29T13:02:12Z</time>
      </trkpt>
      <trkpt lat="44.78098" lon="0.55986">
        <ele>59.537</ele>
        <time>2017-03-29T13:02:32Z</time>
      </trkpt>
      <trkpt lat="44.78134" lon="0.56">
        <ele>58.222</ele>
        <time>2017-03-29T13:02:52Z</time>
      </trkpt>
      <trkpt lat="44.7817" lon="0.5603">
        <ele>58.092</ele>
        <time>2017-03-29T13:03:12Z</time>
      </trkpt>
      <trkpt lat="44.78201" lon="0.56078">
        <ele>57.434</ele>
        <time>2017-03-29T13:03:32Z</time>
      </trkpt>
      <trkpt lat="44.78264" lon="0.56225">
        <ele>54.026</ele>
        <time>2017-03-29T13:03:52Z</time>
      </trkpt>
      <trkpt lat="44.78323" lon="0.56235">
        <ele>54.557</ele>
        <time>2017-03-29T13:04:12Z</time>
      </trkpt>
      <trkpt lat="44.78364" lon="0.56206">
        <ele>53.493</ele>
        <time>2017-03-29T13:04:32Z</time>
      </trkpt>
      <trkpt lat="44.78558" lon="0.56038">
        <ele>55.335</ele>
        <time>2017-03-29T13:04:52Z</time>
      </trkpt>
      <trkpt lat="44.78581" lon="0.56028">
        <ele>55.049</ele>
        <time>2017-03-29T13:05:12Z</time>
      </trkpt>
      <trkpt lat="44.78635" lon="0.56029">
        <ele>57.702</ele>
        <time>2017-03-29T13:05:32Z</time>
      </trkpt>
      <trkpt lat="44.78695" lon="0.56004">
        <ele>62.122</ele>
        <time>2017-03-29T13:05:52Z</time>
      </trkpt>
      <trkpt lat="44.78708" lon="0.56005">
        <ele>64.208</ele>
        <time>2017-03-29T13:06:12Z</time>
      </trkpt>
      <trkpt lat="44.78732" lon="0.55988">
        <ele>62.19</ele>
        <time>2017-03-29T13:06:32Z</time>
      </trkpt>
      <trkpt lat="44.7893" lon="0.55907">
        <ele>59.025</ele>
        <time>2017-03-29T13:06:52Z</time>
      </trkpt>
      <trkpt lat="44.7897" lon="0.55917">
        <ele>59.965</ele>
        <time>2017-03-29T13:07:12Z</time>
      </trkpt>
      <trkpt lat="44.79123" lon="0.55997">
        <ele>58.347</ele>
        <time>2017-03-29T13:07:32Z</time>
      </trkpt>
      <trkpt lat="44.79171" lon="0.56">
        <ele>61.079</ele>
        <time>2017-03-29T13:07:52Z</time>
      </trkpt>
      <trkpt lat="44.79349" lon="0.55961">
        <ele>61.09</ele>
        <time>2017-03-29T13:08:12Z</time>
      </trkpt>
      <trkpt lat="44.79229" lon="0.56132">
        <ele>76.556</ele>
        <time>2017-03-29T13:08:32Z</time>
      </trkpt>
      <trkpt lat="44.79226" lon="0.56154">
        <ele>79.748</ele>
        <time>2017-03-29T13:08:52Z</time>
      </trkpt>
      <trkpt lat="44.79251" lon="0.56271">
        <ele>95.853</ele>
        <time>2017-03-29T13:09:12Z</time>
      </trkpt>
      <trkpt lat="44.79219" lon="0.56355">
        <ele>96.204</ele>
        <time>2017-03-29T13:09:32Z</time>
      </trkpt>
      <trkpt lat="44.79233" lon="0.56397">
        <ele>98.414</ele>
        <time>2017-03-29T13:09:52Z</time>
      </trkpt>
      <trkpt lat="44.79193" lon="0.56557">
        <ele>98.208</ele>
        <time>2017-03-29T13:10:12Z</time>
      </trkpt>
      <trkpt lat="44.79159" lon="0.56585">
        <ele>100.741</ele>
        <time>2017-03-29T13:10:32Z</time>
      </trkpt>
      <trkpt lat="44.7913" lon="0.56712">
        <ele>100.936</ele>
        <time>2017-03-29T13:10:52Z</time>
      </trkpt>
      <trkpt lat="44.79197" lon="0.56809">
        <ele>102.366</ele>
        <time>2017-03-29T13:11:12Z</time>
      </trkpt>
      <trkpt lat="44.79229" lon="0.56837">
        <ele>103.428</ele>
        <time>2017-03-29T13:11:32Z</time>
      </trkpt>
      <trkpt lat="44.79229" lon="0.56918">
        <ele>106.51</ele>
        <time>2017-03-29T13:11:52Z</time>
      </trkpt>
      <trkpt lat="44.7927" lon="0.56937">
        <ele>109.471</ele>
        <time>2017-03-29T13:12:12Z</time>
      </trkpt>
      <trkpt lat="44.7931" lon="0.56997">
        <ele>109.827</ele>
        <time>2017-03-29T13:12:32Z</time>
      </trkpt>
      <trkpt lat="44.7943" lon="0.57093">
        <ele>108.429</ele>
        <time>2017-03-29T13:12:52Z</time>
      </trkpt>
      <trkpt lat="44.79428" lon="0.57114">
        <ele>108.165</ele>
        <time>2017-03-29T13:13:12Z</time>
      </trkpt>
      <trkpt lat="44.79401" lon="0.57167">
        <ele>108.168</ele>
        <time>2017-03-29T13:13:32Z</time>
      </trkpt>
      <trkpt lat="44.7935" lon="0.57296">
        <ele>107.914</ele>
        <time>2017-03-29T13:13:52Z</time>
      </trkpt>
      <trkpt lat="44.7931" lon="0.57426">
        <ele>110.808</ele>
        <time>2017-03-29T13:14:12Z</time>
      </trkpt>
      <trkpt lat="44.79302" lon="0.57487">
        <ele>111.132</ele>
        <time>2017-03-29T13:14:32Z</time>
      </trkpt>
      <trkpt lat="44.7929" lon="0.57552">
        <ele>110.247</ele>
        <time>2017-03-29T13:14:52Z</time>
      </trkpt>
      <trkpt lat="44.79259" lon="0.57629">
        <ele>113.477</ele>
        <time>2017-03-29T13:15:12Z</time>
      </trkpt>
      <trkpt lat="44.7923" lon="0.57686">
        <ele>112.519</ele>
        <time>2017-03-29T13:15:32Z</time>
      </trkpt>
      <trkpt lat="44.79218" lon="0.57735">
        <ele>111.781</ele>
        <time>2017-03-29T13:15:52Z</time>
      </trkpt>
      <trkpt lat="44.79221" lon="0.57818">
        <ele>113.662</ele>
        <time>2017-03-29T13:16:12Z</time>
      </trkpt>
      <trkpt lat="44.79223" lon="0.57914">
        <ele>111.128</ele>
        <time>2017-03-29T13:16:32Z</time>
      </trkpt>
      <trkpt lat="44.79253" lon="0.58162">
        <ele>113.99</ele>
        <time>2017-03-29T13:16:52Z</time>
      </trkpt>
      <trkpt lat="44.79234" lon="0.58286">
        <ele>109.365</ele>
        <time>2017-03-29T13:17:12Z</time>
      </trkpt>
      <trkpt lat="44.79226" lon="0.58404">
        <ele>109.968</ele>
        <time>2017-03-29T13:17:32Z</time>
      </trkpt>
      <trkpt lat="44.79235" lon="0.58516">
        <ele>111.214</ele>
        <time>2017-03-29T13:17:52Z</time>
      </trkpt>
      <trkpt lat="44.79213" lon="0.58593">
        <ele>110.808</ele>
        <time>2017-03-29T13:18:12Z</time>
      </trkpt>
      <trkpt lat="44.79152" lon="0.58775">
        <ele>108.152</ele>
        <time>2017-03-29T13:18:32Z</time>
      </trkpt>
      <trkpt lat="44.79145" lon="0.58933">
        <ele>111.537</ele>
        <time>2017-03-29T13:18:52Z</time>
      </trkpt>
      <trkpt lat="44.79131" lon="0.58982">
        <ele>112.177</ele>
        <time>2017-03-29T13:19:12Z</time>
      </trkpt>
      <trkpt lat="44.7909" lon="0.59149">
        <ele>114.929</ele>
        <time>2017-03-29T13:19:32Z</time>
      </trkpt>
      <trkpt lat="44.79148" lon="0.59334">
        <ele>110.781</ele>
        <time>2017-03-29T13:19:52Z</time>
      </trkpt>
      <trkpt lat="44.79212" lon="0.59435">
        <ele>111.422</ele>
        <time>2017-03-29T13:20:12Z</time>
      </trkpt>
      <trkpt lat="44.79286" lon="0.59549">
        <ele>119.568</ele>
        <time>2017-03-29T13:20:32Z</time>
      </trkpt>
      <trkpt lat="44.79324" lon="0.59566">
        <ele>119.09</ele>
        <time>2017-03-29T13:20:52Z</time>
      </trkpt>
      <trkpt lat="44.79304" lon="0.59695">
        <ele>122.917</ele>
        <time>2017-03-29T13:21:12Z</time>
      </trkpt>
      <trkpt lat="44.79303" lon="0.59734">
        <ele>120.687</ele>
        <time>2017-03-29T13:21:32Z</time>
      </trkpt>
      <trkpt lat="44.79316" lon="0.59756">
        <ele>120.015</ele>
        <time>2017-03-29T13:21:52Z</time>
      </trkpt>
      <trkpt lat="44.79316" lon="0.59756">
        <ele>120.015</ele>
        <time>2017-03-29T13:21:52Z</time>
      </trkpt>
      <trkpt lat="44.79316" lon="0.59756">
        <ele>120.015</ele>
        <time>2017-03-29T13:21:52Z</time>
      </trkpt>
      <trkpt lat="44.79316" lon="0.59756">
        <ele>120.015</ele>
        <time>2017-03-29T13:21:52Z</time>
      </trkpt>
      <trkpt lat="44.79316" lon="0.59756">
        <ele>120.015</ele>
        <time>2017-03-29T13:21:52Z</time>
      </trkpt>
      <trkpt lat="44.79316" lon="0.59756">
        <ele>120.015</ele>
        <time>2017-03-29T13:21:52Z</time>
      </trkpt>
      <trkpt lat="44.79349" lon="0.59832">
        <ele>118.408</ele>
        <time>2017-03-29T13:22:12Z</time>
      </trkpt>
      <trkpt lat="44.7935" lon="0.59971">
        <ele>122.477</ele>
        <time>2017-03-29T13:22:32Z</time>
      </trkpt>
      <trkpt lat="44.7937" lon="0.5999">
        <ele>121.562</ele>
        <time>2017-03-29T13:22:52Z</time>
      </trkpt>
      <trkpt lat="44.79435" lon="0.59973">
        <ele>118.612</ele>
        <time>2017-03-29T13:23:12Z</time>
      </trkpt>
      <trkpt lat="44.79495" lon="0.59969">
        <ele>117.244</ele>
        <time>2017-03-29T13:23:32Z</time>
      </trkpt>
      <trkpt lat="44.79602" lon="0.60012">
        <ele>114.756</ele>
        <time>2017-03-29T13:23:52Z</time>
      </trkpt>
      <trkpt lat="44.79585" lon="0.60074">
        <ele>113.477</ele>
        <time>2017-03-29T13:24:12Z</time>
      </trkpt>
      <trkpt lat="44.79557" lon="0.60111">
        <ele>113.023</ele>
        <time>2017-03-29T13:24:32Z</time>
      </trkpt>
      <trkpt lat="44.79536" lon="0.60223">
        <ele>112.625</ele>
        <time>2017-03-29T13:24:52Z</time>
      </trkpt>
      <trkpt lat="44.79622" lon="0.60262">
        <ele>119.745</ele>
        <time>2017-03-29T13:25:12Z</time>
      </trkpt>
      <trkpt lat="44.79644" lon="0.60256">
        <ele>120.847</ele>
        <time>2017-03-29T13:25:32Z</time>
      </trkpt>
      <trkpt lat="44.79698" lon="0.60287">
        <ele>126.311</ele>
        <time>2017-03-29T13:25:52Z</time>
      </trkpt>
      <trkpt lat="44.79716" lon="0.60306">
        <ele>127.008</ele>
        <time>2017-03-29T13:26:12Z</time>
      </trkpt>
      <trkpt lat="44.79773" lon="0.60334">
        <ele>127.83</ele>
        <time>2017-03-29T13:26:32Z</time>
      </trkpt>
      <trkpt lat="44.7982" lon="0.60366">
        <ele>131.035</ele>
        <time>2017-03-29T13:26:52Z</time>
      </trkpt>
      <trkpt lat="44.79851" lon="0.60448">
        <ele>131.975</ele>
        <time>2017-03-29T13:27:12Z</time>
      </trkpt>
      <trkpt lat="44.79911" lon="0.60503">
        <ele>131.867</ele>
        <time>2017-03-29T13:27:32Z</time>
      </trkpt>
      <trkpt lat="44.79927" lon="0.60536">
        <ele>132.929</ele>
        <time>2017-03-29T13:27:52Z</time>
      </trkpt>
      <trkpt lat="44.79971" lon="0.60587">
        <ele>136.95</ele>
        <time>2017-03-29T13:28:12Z</time>
      </trkpt>
      <trkpt lat="44.79959" lon="0.60624">
        <ele>136.346</ele>
        <time>2017-03-29T13:28:32Z</time>
      </trkpt>
      <trkpt lat="44.8007" lon="0.60678">
        <ele>132.528</ele>
        <time>2017-03-29T13:28:52Z</time>
      </trkpt>
      <trkpt lat="44.80052" lon="0.60746">
        <ele>133.016</ele>
        <time>2017-03-29T13:29:12Z</time>
      </trkpt>
      <trkpt lat="44.80156" lon="0.60778">
        <ele>131.076</ele>
        <time>2017-03-29T13:29:32Z</time>
      </trkpt>
      <trkpt lat="44.80257" lon="0.60946">
        <ele>137.313</ele>
        <time>2017-03-29T13:29:52Z</time>
      </trkpt>
      <trkpt lat="44.80285" lon="0.60913">
        <ele>137.308</ele>
        <time>2017-03-29T13:30:12Z</time>
      </trkpt>
      <trkpt lat="44.80333" lon="0.60878">
        <ele>138.647</ele>
        <time>2017-03-29T13:30:32Z</time>
      </trkpt>
      <trkpt lat="44.80373" lon="0.60857">
        <ele>139.252</ele>
        <time>2017-03-29T13:30:52Z</time>
      </trkpt>
      <trkpt lat="44.80401" lon="0.60837">
        <ele>139.492</ele>
        <time>2017-03-29T13:31:12Z</time>
      </trkpt>
      <trkpt lat="44.80425" lon="0.60958">
        <ele>144.134</ele>
        <time>2017-03-29T13:31:32Z</time>
      </trkpt>
      <trkpt lat="44.80501" lon="0.61202">
        <ele>142.356</ele>
        <time>2017-03-29T13:31:52Z</time>
      </trkpt>
      <trkpt lat="44.80497" lon="0.61235">
        <ele>142.767</ele>
        <time>2017-03-29T13:32:12Z</time>
      </trkpt>
      <trkpt lat="44.80455" lon="0.61304">
        <ele>141.093</ele>
        <time>2017-03-29T13:32:32Z</time>
      </trkpt>
      <trkpt lat="44.80426" lon="0.61391">
        <ele>138.695</ele>
        <time>2017-03-29T13:32:52Z</time>
      </trkpt>
      <trkpt lat="44.80364" lon="0.61446">
        <ele>136.839</ele>
        <time>2017-03-29T13:33:12Z</time>
      </trkpt>
      <trkpt lat="44.80314" lon="0.61483">
        <ele>130.901</ele>
        <time>2017-03-29T13:33:32Z</time>
      </trkpt>
      <trkpt lat="44.80288" lon="0.61515">
        <ele>125.921</ele>
        <time>2017-03-29T13:33:52Z</time>
      </trkpt>
      <trkpt lat="44.80284" lon="0.61551">
        <ele>123.108</ele>
        <time>2017-03-29T13:34:12Z</time>
      </trkpt>
      <trkpt lat="44.80303" lon="0.61583">
        <ele>119.249</ele>
        <time>2017-03-29T13:34:32Z</time>
      </trkpt>
      <trkpt lat="44.80476" lon="0.61599">
        <ele>116.644</ele>
        <time>2017-03-29T13:34:52Z</time>
      </trkpt>
      <trkpt lat="44.80533" lon="0.61615">
        <ele>111.664</ele>
        <time>2017-03-29T13:35:12Z</time>
      </trkpt>
      <trkpt lat="44.80593" lon="0.6161">
        <ele>111.826</ele>
        <time>2017-03-29T13:35:32Z</time>
      </trkpt>
      <trkpt lat="44.80618" lon="0.61666">
        <ele>105.368</ele>
        <time>2017-03-29T13:35:52Z</time>
      </trkpt>
      <trkpt lat="44.80637" lon="0.61688">
        <ele>105.259</ele>
        <time>2017-03-29T13:36:12Z</time>
      </trkpt>
      <trkpt lat="44.80681" lon="0.61694">
        <ele>103.535</ele>
        <time>2017-03-29T13:36:32Z</time>
      </trkpt>
      <trkpt lat="44.80692" lon="0.61713">
        <ele>101.197</ele>
        <time>2017-03-29T13:36:52Z</time>
      </trkpt>
      <trkpt lat="44.80693" lon="0.6177">
        <ele>97.083</ele>
        <time>2017-03-29T13:37:12Z</time>
      </trkpt>
      <trkpt lat="44.80705" lon="0.61808">
        <ele>96.125</ele>
        <time>2017-03-29T13:37:32Z</time>
      </trkpt>
      <trkpt lat="44.80695" lon="0.61868">
        <ele>99.817</ele>
        <time>2017-03-29T13:37:52Z</time>
      </trkpt>
      <trkpt lat="44.8067" lon="0.61936">
        <ele>105.508</ele>
        <time>2017-03-29T13:38:12Z</time>
      </trkpt>
      <trkpt lat="44.80671" lon="0.62">
        <ele>102.984</ele>
        <time>2017-03-29T13:38:32Z</time>
      </trkpt>
      <trkpt lat="44.80659" lon="0.62098">
        <ele>101.749</ele>
        <time>2017-03-29T13:38:52Z</time>
      </trkpt>
      <trkpt lat="44.80634" lon="0.6221">
        <ele>102.349</ele>
        <time>2017-03-29T13:39:12Z</time>
      </trkpt>
      <trkpt lat="44.80592" lon="0.62315">
        <ele>105.331</ele>
        <time>2017-03-29T13:39:32Z</time>
      </trkpt>
      <trkpt lat="44.80595" lon="0.62338">
        <ele>105.693</ele>
        <time>2017-03-29T13:39:52Z</time>
      </trkpt>
      <trkpt lat="44.80674" lon="0.62479">
        <ele>118.594</ele>
        <time>2017-03-29T13:40:12Z</time>
      </trkpt>
      <trkpt lat="44.80712" lon="0.62467">
        <ele>119.56</ele>
        <time>2017-03-29T13:40:32Z</time>
      </trkpt>
      <trkpt lat="44.80745" lon="0.62493">
        <ele>123.342</ele>
        <time>2017-03-29T13:40:52Z</time>
      </trkpt>
      <trkpt lat="44.80769" lon="0.62546">
        <ele>126.398</ele>
        <time>2017-03-29T13:41:12Z</time>
      </trkpt>
      <trkpt lat="44.80776" lon="0.62584">
        <ele>126.215</ele>
        <time>2017-03-29T13:41:32Z</time>
      </trkpt>
      <trkpt lat="44.80776" lon="0.62654">
        <ele>129.326</ele>
        <time>2017-03-29T13:41:52Z</time>
      </trkpt>
      <trkpt lat="44.80774" lon="0.62715">
        <ele>130.908</ele>
        <time>2017-03-29T13:42:12Z</time>
      </trkpt>
      <trkpt lat="44.80787" lon="0.6272">
        <ele>129.725</ele>
        <time>2017-03-29T13:42:32Z</time>
      </trkpt>
      <trkpt lat="44.80815" lon="0.62703">
        <ele>129.24</ele>
        <time>2017-03-29T13:42:52Z</time>
      </trkpt>
      <trkpt lat="44.80844" lon="0.62703">
        <ele>130.12</ele>
        <time>2017-03-29T13:43:12Z</time>
      </trkpt>
      <trkpt lat="44.80987" lon="0.62776">
        <ele>151.152</ele>
        <time>2017-03-29T13:43:32Z</time>
      </trkpt>
      <trkpt lat="44.81077" lon="0.62845">
        <ele>165.714</ele>
        <time>2017-03-29T13:43:52Z</time>
      </trkpt>
      <trkpt lat="44.81062" lon="0.629">
        <ele>165.655</ele>
        <time>2017-03-29T13:44:12Z</time>
      </trkpt>
      <trkpt lat="44.8103" lon="0.62984">
        <ele>164.021</ele>
        <time>2017-03-29T13:44:32Z</time>
      </trkpt>
      <trkpt lat="44.8103" lon="0.63033">
        <ele>165.023</ele>
        <time>2017-03-29T13:44:52Z</time>
      </trkpt>
      <trkpt lat="44.81052" lon="0.63144">
        <ele>165.843</ele>
        <time>2017-03-29T13:45:12Z</time>
      </trkpt>
      <trkpt lat="44.81044" lon="0.63206">
        <ele>165.164</ele>
        <time>2017-03-29T13:45:32Z</time>
      </trkpt>
      <trkpt lat="44.80985" lon="0.63217">
        <ele>167.41</ele>
        <time>2017-03-29T13:45:52Z</time>
      </trkpt>
      <trkpt lat="44.80889" lon="0.63226">
        <ele>163.008</ele>
        <time>2017-03-29T13:46:12Z</time>
      </trkpt>
      <trkpt lat="44.80878" lon="0.63245">
        <ele>161.82</ele>
        <time>2017-03-29T13:46:32Z</time>
      </trkpt>
      <trkpt lat="44.80868" lon="0.63313">
        <ele>161.885</ele>
        <time>2017-03-29T13:46:52Z</time>
      </trkpt>
      <trkpt lat="44.80843" lon="0.63363">
        <ele>160.585</ele>
        <time>2017-03-29T13:47:12Z</time>
      </trkpt>
      <trkpt lat="44.80835" lon="0.63524">
        <ele>167.837</ele>
        <time>2017-03-29T13:47:32Z</time>
      </trkpt>
      <trkpt lat="44.80818" lon="0.6357">
        <ele>169.559</ele>
        <time>2017-03-29T13:47:52Z</time>
      </trkpt>
      <trkpt lat="44.8074" lon="0.63687">
        <ele>176.32</ele>
        <time>2017-03-29T13:48:12Z</time>
      </trkpt>
      <trkpt lat="44.80637" lon="0.63803">
        <ele>173.936</ele>
        <time>2017-03-29T13:48:32Z</time>
      </trkpt>
      <trkpt lat="44.80543" lon="0.64011">
        <ele>172.298</ele>
        <time>2017-03-29T13:48:52Z</time>
      </trkpt>
      <trkpt lat="44.80462" lon="0.64086">
        <ele>171.324</ele>
        <time>2017-03-29T13:49:12Z</time>
      </trkpt>
      <trkpt lat="44.80402" lon="0.64228">
        <ele>170.904</ele>
        <time>2017-03-29T13:49:32Z</time>
      </trkpt>
      <trkpt lat="44.80323" lon="0.6442">
        <ele>173.014</ele>
        <time>2017-03-29T13:49:52Z</time>
      </trkpt>
      <trkpt lat="44.80253" lon="0.64521">
        <ele>173.008</ele>
        <time>2017-03-29T13:50:12Z</time>
      </trkpt>
      <trkpt lat="44.8018" lon="0.64683">
        <ele>170.818</ele>
        <time>2017-03-29T13:50:32Z</time>
      </trkpt>
      <trkpt lat="44.80086" lon="0.64578">
        <ele>170.083</ele>
        <time>2017-03-29T13:50:52Z</time>
      </trkpt>
      <trkpt lat="44.79921" lon="0.64329">
        <ele>174.043</ele>
        <time>2017-03-29T13:51:12Z</time>
      </trkpt>
      <trkpt lat="44.79792" lon="0.64321">
        <ele>169.835</ele>
        <time>2017-03-29T13:51:32Z</time>
      </trkpt>
      <trkpt lat="44.79704" lon="0.64336">
        <ele>168.9</ele>
      </trkpt>
      <trkpt lat="44.79578" lon="0.64342">
        <ele>165.9</ele>
      </trkpt>
      <trkpt lat="44.79544" lon="0.64342">
        <ele>165.1</ele>
      </trkpt>
      <trkpt lat="44.79548" lon="0.6436">
        <ele>165.4</ele>
      </trkpt>
      <trkpt lat="44.79521" lon="0.64504">
        <ele>163.2</ele>
      </trkpt>
      <trkpt lat="44.79535" lon="0.64528">
        <ele>162.8</ele>
      </trkpt>
      <trkpt lat="44.79339" lon="0.6494">
        <ele>154.3</ele>
      </trkpt>
    </trkseg>
  </trk>
</gpx>